createdAt,value
2023-04-21T00:01:39.510Z,4.38
2023-04-21T00:04:08.251Z,4.93
2023-04-21T00:06:36.681Z,9.18
2023-04-21T00:09:05.568Z,5.55
2023-04-21T00:11:33.328Z,9.32
2023-04-21T00:14:01.023Z,7.30
2023-04-21T00:16:30.288Z,5.80
2023-04-21T00:18:58.336Z,7.00
2023-04-21T00:21:26.781Z,2.92
2023-04-21T00:23:54.452Z,17.77
2023-04-21T00:26:22.131Z,10.48
2023-04-21T00:28:49.838Z,7.95
2023-04-21T00:31:17.831Z,6.72
2023-04-21T00:33:46.998Z,5.00
2023-04-21T00:36:14.682Z,8.70
2023-04-21T00:38:42.421Z,15.68
2023-04-21T00:41:10.126Z,6.82
2023-04-21T00:43:37.801Z,10.15
2023-04-21T00:46:05.851Z,10.43
2023-04-21T00:48:33.535Z,6.57
2023-04-21T00:51:02.746Z,6.70
2023-04-21T00:53:30.571Z,8.65
2023-04-21T00:55:58.387Z,5.38
2023-04-21T00:58:26.155Z,6.85
2023-04-21T01:00:53.972Z,7.00
2023-04-21T01:03:21.847Z,21.25
2023-04-21T01:05:49.791Z,6.28
2023-04-21T01:08:18.906Z,7.95
2023-04-21T01:10:46.644Z,8.88
2023-04-21T01:13:14.387Z,7.90
2023-04-21T01:15:42.102Z,8.40
2023-04-21T01:18:09.867Z,12.93
2023-04-21T01:20:39.049Z,9.07
2023-04-21T01:23:08.258Z,7.93
2023-04-21T01:25:36.073Z,5.57
2023-04-21T01:28:03.884Z,9.20
2023-04-21T01:30:31.626Z,9.45
2023-04-21T01:33:00.736Z,8.27
2023-04-21T01:35:28.617Z,7.03
2023-04-21T01:37:56.340Z,7.75
2023-04-21T01:40:25.611Z,8.48
2023-04-21T01:42:53.323Z,10.48
2023-04-21T01:45:21.001Z,13.38
2023-04-21T01:47:48.730Z,6.78
2023-04-21T01:50:16.515Z,10.05
2023-04-21T01:52:44.226Z,8.70
2023-04-21T01:55:11.928Z,8.63
2023-04-21T01:57:40.967Z,8.55
2023-04-21T02:00:10.312Z,8.38
2023-04-21T02:02:38.226Z,14.63
2023-04-21T02:05:06.959Z,11.13
2023-04-21T02:07:34.652Z,10.20
2023-04-21T02:10:02.875Z,8.45
2023-04-21T02:12:30.961Z,8.55
2023-04-21T02:15:00.101Z,10.00
2023-04-21T02:17:27.874Z,9.00
2023-04-21T02:19:55.837Z,11.63
2023-04-21T02:22:23.526Z,12.65
2023-04-21T02:24:51.617Z,11.98
2023-04-21T02:27:19.380Z,9.85
2023-04-21T02:29:47.078Z,17.67
2023-04-21T02:32:25.593Z,11.60
2023-04-21T02:34:54.243Z,9.35
2023-04-21T02:37:22.024Z,9.98
2023-04-21T02:39:49.794Z,9.38
2023-04-21T02:42:17.552Z,12.05
2023-04-21T02:44:45.314Z,13.10
2023-04-21T02:47:13.015Z,10.98
2023-04-21T02:49:45.625Z,16.40
2023-04-21T02:52:13.535Z,16.73
2023-04-21T02:54:41.223Z,12.20
2023-04-21T02:57:09.004Z,11.15
2023-04-21T02:59:36.736Z,9.75
2023-04-21T03:02:04.738Z,12.32
2023-04-21T03:04:33.854Z,11.75
2023-04-21T03:07:03.003Z,15.32
2023-04-21T03:09:30.742Z,8.02
2023-04-21T03:11:58.452Z,11.57
2023-04-21T03:14:26.123Z,11.50
2023-04-21T03:16:53.840Z,14.07
2023-04-21T03:19:21.866Z,11.27
2023-04-21T03:21:49.777Z,15.43
2023-04-21T03:24:19.362Z,11.63
2023-04-21T03:26:47.200Z,15.18
2023-04-21T03:29:14.900Z,13.98
2023-04-21T03:31:42.645Z,13.00
2023-04-21T03:34:10.402Z,10.65
2023-04-21T03:36:38.126Z,10.02
2023-04-21T03:39:19.202Z,9.85
2023-04-21T03:41:48.777Z,15.60
2023-04-21T03:44:16.509Z,10.68
2023-04-21T03:46:44.271Z,13.85
2023-04-21T03:49:12.105Z,10.00
2023-04-21T03:51:39.795Z,12.70
2023-04-21T03:54:08.343Z,11.93
2023-04-21T03:56:36.078Z,14.07
2023-04-21T03:59:05.764Z,12.65
2023-04-21T04:01:34.787Z,10.93
2023-04-21T04:04:03.059Z,7.55
2023-04-21T04:06:32.168Z,12.18
2023-04-21T04:09:02.478Z,10.35
2023-04-21T04:11:30.332Z,12.77
2023-04-21T04:13:58.618Z,10.88
2023-04-21T04:16:29.026Z,5.75
2023-04-21T04:18:57.022Z,8.48
2023-04-21T04:21:24.724Z,8.35
2023-04-21T04:23:53.281Z,11.98
2023-04-21T04:26:22.657Z,14.65
2023-04-21T04:28:50.610Z,10.43
2023-04-21T04:31:18.399Z,9.13
2023-04-21T04:33:47.491Z,14.50
2023-04-21T04:36:15.184Z,8.40
2023-04-21T04:38:42.911Z,8.98
2023-04-21T04:41:12.695Z,8.48
2023-04-21T04:43:40.418Z,11.18
2023-04-21T04:46:09.093Z,10.93
2023-04-21T04:48:36.920Z,12.38
2023-04-21T04:51:06.222Z,8.35
2023-04-21T04:53:34.106Z,11.57
2023-04-21T04:56:01.906Z,12.57
2023-04-21T04:58:29.633Z,9.45
2023-04-21T05:00:57.383Z,11.32
2023-04-21T05:03:25.313Z,14.93
2023-04-21T05:05:54.292Z,10.88
2023-04-21T05:08:23.363Z,10.75
2023-04-21T05:10:51.072Z,15.32
2023-04-21T05:13:18.930Z,11.93
2023-04-21T05:15:46.652Z,13.45
2023-04-21T05:18:14.392Z,10.88
2023-04-21T05:20:42.572Z,17.35
2023-04-21T05:23:10.335Z,12.60
2023-04-21T05:25:39.568Z,8.88
2023-04-21T05:28:07.342Z,14.75
2023-04-21T05:30:35.130Z,16.23
2023-04-21T05:33:02.875Z,10.65
2023-04-21T05:35:31.879Z,13.65
2023-04-21T05:37:59.610Z,12.25
2023-04-21T05:40:27.300Z,13.05
2023-04-21T05:42:56.391Z,9.63
2023-04-21T05:45:24.124Z,11.55
2023-04-21T05:47:51.983Z,9.60
2023-04-21T05:50:19.905Z,12.55
2023-04-21T05:52:47.604Z,10.52
2023-04-21T05:55:15.283Z,14.68
2023-04-21T05:57:42.981Z,11.70
2023-04-21T06:00:13.529Z,13.40
2023-04-21T06:02:41.478Z,12.82
2023-04-21T06:05:09.531Z,22.00
2023-04-21T06:07:38.184Z,19.63
2023-04-21T06:10:06.553Z,16.00
2023-04-21T06:12:34.271Z,13.43
2023-04-21T06:15:02.006Z,13.32
2023-04-21T06:17:31.143Z,13.75
2023-04-21T06:19:59.122Z,32.80
2023-04-21T06:22:28.328Z,13.63
2023-04-21T06:24:56.028Z,13.90
2023-04-21T06:27:23.785Z,12.45
2023-04-21T06:29:56.421Z,18.38
2023-04-21T06:32:24.156Z,18.10
2023-04-21T06:34:53.296Z,12.68
2023-04-21T06:37:21.017Z,17.30
2023-04-21T06:39:48.723Z,13.95
2023-04-21T06:42:16.406Z,17.48
2023-04-21T06:44:44.188Z,14.38
2023-04-21T06:47:11.947Z,18.33
2023-04-21T06:49:40.123Z,15.23
2023-04-21T06:52:09.364Z,15.10
2023-04-21T06:54:37.113Z,17.08
2023-04-21T06:57:05.072Z,21.65
2023-04-21T06:59:32.831Z,15.13
2023-04-21T07:02:00.541Z,18.30
2023-04-21T07:04:30.171Z,16.63
2023-04-21T07:06:58.802Z,16.77
2023-04-21T07:09:29.457Z,17.00
2023-04-21T07:11:57.161Z,27.05
2023-04-21T07:14:24.914Z,17.33
2023-04-21T07:16:52.851Z,17.15
2023-04-21T07:19:20.896Z,28.10
2023-04-21T07:21:48.769Z,16.17
2023-04-21T07:24:16.511Z,21.15
2023-04-21T07:26:45.667Z,20.02
2023-04-21T07:29:13.398Z,19.83
2023-04-21T07:31:41.152Z,19.35
2023-04-21T07:34:08.963Z,18.23
2023-04-21T07:36:38.096Z,16.13
2023-04-21T07:39:06.337Z,19.45
2023-04-21T07:41:34.110Z,18.40
2023-04-21T07:44:03.186Z,19.77
2023-04-21T07:46:32.031Z,20.85
2023-04-21T07:49:03.591Z,22.67
2023-04-21T07:51:31.998Z,23.88
2023-04-21T07:53:59.911Z,19.40
2023-04-21T07:56:27.634Z,16.65
2023-04-21T07:58:55.501Z,19.70
2023-04-21T08:01:24.733Z,16.15
2023-04-21T08:03:52.571Z,21.15
2023-04-21T08:06:20.776Z,15.38
2023-04-21T08:08:48.940Z,18.95
2023-04-21T08:11:16.744Z,18.38
2023-04-21T08:13:44.544Z,19.30
2023-04-21T08:16:12.332Z,15.20
2023-04-21T08:18:41.493Z,17.92
2023-04-21T08:21:09.724Z,15.90
2023-04-21T08:23:37.415Z,17.52
2023-04-21T08:26:05.284Z,18.58
2023-04-21T08:28:33.007Z,22.48
2023-04-21T08:31:02.118Z,18.35
2023-04-21T08:33:29.954Z,19.85
2023-04-21T08:36:04.222Z,23.52
2023-04-21T08:38:36.420Z,20.45
2023-04-21T08:41:05.445Z,14.25
2023-04-21T08:43:34.208Z,17.92
2023-04-21T08:46:07.137Z,20.05
2023-04-21T08:48:37.387Z,18.67
2023-04-21T08:51:09.776Z,31.90
2023-04-21T08:53:38.042Z,19.83
2023-04-21T08:58:37.121Z,18.25
2023-04-21T09:01:04.956Z,17.25
2023-04-21T09:03:32.892Z,16.58
2023-04-21T09:06:02.594Z,20.80
2023-04-21T09:08:32.559Z,18.15
2023-04-21T09:11:01.844Z,17.65
2023-04-21T09:13:34.355Z,16.25
2023-04-21T09:16:03.556Z,17.27
2023-04-21T09:18:35.941Z,16.88
2023-04-21T09:21:08.621Z,15.80
2023-04-21T09:23:46.537Z,15.88
2023-04-21T09:26:15.848Z,17.35
2023-04-21T09:28:44.631Z,12.05
2023-04-21T09:31:19.790Z,18.05
2023-04-21T09:33:57.080Z,14.50
2023-04-21T09:36:28.315Z,14.15
2023-04-21T09:41:32.971Z,14.18
2023-04-21T09:44:01.472Z,13.23
2023-04-21T09:46:31.217Z,18.33
2023-04-21T09:49:01.981Z,15.07
2023-04-21T09:51:49.068Z,19.02
2023-04-21T09:56:55.188Z,13.30
2023-04-21T09:59:28.206Z,15.43
2023-04-21T10:01:58.742Z,12.02
2023-04-21T10:04:27.405Z,13.60
2023-04-21T10:06:56.605Z,13.40
2023-04-21T10:09:28.368Z,14.52
2023-04-21T10:11:56.695Z,8.70
2023-04-21T10:14:26.405Z,13.85
2023-04-21T10:16:58.279Z,15.27
2023-04-21T10:19:27.482Z,12.43
2023-04-21T10:21:57.504Z,11.57
2023-04-21T10:24:29.805Z,10.05
2023-04-21T10:27:01.700Z,9.95
2023-04-21T10:29:40.323Z,13.25
2023-04-21T10:32:11.913Z,13.73
2023-04-21T10:34:40.663Z,10.70
2023-04-21T10:37:15.573Z,16.02
2023-04-21T10:39:58.264Z,11.15
2023-04-21T10:42:31.201Z,14.37
2023-04-21T10:45:06.661Z,14.30
2023-04-21T10:47:38.478Z,10.25
2023-04-21T10:50:17.827Z,14.48
2023-04-21T10:52:47.524Z,13.60
2023-04-21T10:55:17.125Z,11.23
2023-04-21T10:57:46.546Z,11.10
2023-04-21T11:00:19.720Z,11.43
2023-04-21T11:02:55.740Z,15.30
2023-04-21T11:05:29.279Z,12.95
2023-04-21T11:08:11.296Z,13.68
2023-04-21T11:10:52.768Z,12.00
2023-04-21T11:13:25.528Z,13.02
2023-04-21T11:16:05.901Z,11.50
2023-04-21T11:18:43.845Z,17.08
2023-04-21T11:21:21.490Z,13.35
2023-04-21T11:23:50.670Z,18.48
2023-04-21T11:26:21.036Z,15.93
2023-04-21T11:28:50.646Z,12.75
2023-04-21T11:31:18.716Z,12.40
2023-04-21T11:33:46.543Z,12.88
2023-04-21T11:36:14.360Z,13.00
2023-04-21T11:38:42.653Z,11.35
2023-04-21T11:41:11.286Z,12.23
2023-04-21T11:43:40.497Z,8.70
2023-04-21T11:46:17.752Z,11.98
2023-04-21T11:48:45.682Z,10.13
2023-04-21T11:51:19.285Z,12.88
2023-04-21T11:53:48.752Z,13.25
2023-04-21T11:56:19.968Z,14.55
2023-04-21T11:58:50.248Z,14.70
2023-04-21T12:01:18.206Z,12.80
2023-04-21T12:03:52.986Z,13.55
2023-04-21T12:06:25.863Z,10.23
2023-04-21T12:08:58.579Z,12.55
2023-04-21T12:11:28.772Z,13.77
2023-04-21T12:13:59.522Z,9.70
2023-04-21T12:16:28.413Z,13.57
2023-04-21T12:18:56.814Z,13.00
2023-04-21T12:21:28.501Z,10.32
2023-04-21T12:23:56.203Z,12.40
2023-04-21T12:26:24.806Z,12.80
2023-04-21T12:28:52.684Z,19.42
2023-04-21T12:31:21.773Z,10.45
2023-04-21T12:33:49.509Z,13.50
2023-04-21T12:36:17.556Z,13.68
2023-04-21T12:38:45.605Z,10.38
2023-04-21T12:41:13.342Z,12.50
2023-04-21T12:43:41.121Z,10.55
2023-04-21T12:46:08.905Z,15.50
2023-04-21T12:48:38.093Z,15.00
2023-04-21T12:51:05.894Z,13.68
2023-04-21T12:53:33.590Z,11.63
2023-04-21T12:56:05.115Z,13.48
2023-04-21T12:58:33.244Z,12.82
2023-04-21T13:01:01.120Z,13.20
2023-04-21T13:03:29.013Z,13.95
2023-04-21T13:05:58.450Z,19.83
2023-04-21T13:08:26.417Z,8.95
2023-04-21T13:10:55.387Z,10.75
2023-04-21T13:13:23.316Z,10.60
2023-04-21T13:15:51.086Z,8.15
2023-04-21T13:18:18.859Z,11.30
2023-04-21T13:20:47.769Z,12.05
2023-04-21T13:23:17.103Z,11.40
2023-04-21T13:25:45.815Z,13.95
2023-04-21T13:28:14.526Z,11.60
2023-04-21T13:30:42.405Z,9.88
2023-04-21T13:33:11.329Z,17.65
2023-04-21T13:35:39.217Z,10.95
2023-04-21T13:38:07.014Z,13.85
2023-04-21T13:40:36.559Z,11.02
2023-04-21T13:43:04.312Z,9.27
2023-04-21T13:45:32.330Z,11.52
2023-04-21T13:48:00.167Z,11.30
2023-04-21T13:50:27.934Z,11.60
2023-04-21T13:52:55.634Z,10.23
2023-04-21T13:55:23.382Z,12.30
2023-04-21T13:57:52.498Z,11.77
2023-04-21T14:00:20.937Z,11.88
2023-04-21T14:02:49.378Z,11.32
2023-04-21T14:05:17.829Z,14.23
2023-04-21T14:07:45.914Z,11.88
2023-04-21T14:10:13.666Z,13.32
2023-04-21T14:12:41.456Z,14.48
2023-04-21T14:15:11.590Z,10.32
2023-04-21T14:17:39.422Z,13.45
2023-04-21T14:20:09.300Z,11.50
2023-04-21T14:22:37.050Z,7.85
2023-04-21T14:25:05.114Z,10.75
2023-04-21T14:27:33.630Z,12.02
2023-04-21T14:30:01.598Z,12.50
2023-04-21T14:32:30.828Z,11.70
2023-04-21T14:34:59.283Z,12.60
2023-04-21T14:37:28.182Z,9.40
2023-04-21T14:39:55.910Z,11.27
2023-04-21T14:42:23.591Z,12.10
2023-04-21T14:44:51.560Z,12.43
2023-04-21T14:47:19.369Z,14.93
2023-04-21T14:49:55.026Z,12.32
2023-04-21T14:52:24.522Z,18.27
2023-04-21T14:54:52.461Z,20.35
2023-04-21T14:57:21.769Z,12.25
2023-04-21T14:59:51.094Z,13.13
2023-04-21T15:02:19.879Z,8.63
2023-04-21T15:04:49.283Z,14.02
2023-04-21T15:07:22.893Z,11.40
2023-04-21T15:09:51.532Z,10.48
2023-04-21T15:12:19.361Z,11.70
2023-04-21T15:14:47.181Z,7.93
2023-04-21T15:17:14.912Z,8.63
2023-04-21T15:19:42.705Z,9.43
2023-04-21T15:22:12.243Z,9.32
2023-04-21T15:24:40.037Z,10.68
2023-04-21T15:27:07.803Z,9.25
2023-04-21T15:29:35.950Z,9.68
2023-04-21T15:32:04.661Z,13.95
2023-04-21T15:34:32.437Z,13.90
2023-04-21T15:37:00.189Z,9.88
2023-04-21T15:39:29.349Z,9.60
2023-04-21T15:41:58.990Z,10.63
2023-04-21T15:44:26.771Z,9.20
2023-04-21T15:46:54.541Z,13.20
2023-04-21T15:49:24.477Z,10.93
2023-04-21T15:51:53.729Z,14.90
2023-04-21T15:54:22.741Z,9.90
2023-04-21T15:56:52.358Z,10.05
2023-04-21T15:59:20.051Z,9.45
2023-04-21T16:01:47.845Z,7.85
2023-04-21T16:04:16.343Z,9.45
2023-04-21T16:06:44.260Z,14.82
2023-04-21T16:09:12.138Z,10.10
2023-04-21T16:11:40.311Z,10.05
2023-04-21T16:14:09.782Z,7.63
2023-04-21T16:16:37.758Z,8.63
2023-04-21T16:19:05.504Z,9.65
2023-04-21T16:21:33.434Z,10.23
2023-04-21T16:24:01.305Z,9.40
2023-04-21T16:26:29.064Z,10.00
2023-04-21T16:28:56.738Z,9.02
2023-04-21T16:31:25.960Z,12.80
2023-04-21T16:33:59.293Z,9.13
2023-04-21T16:38:56.457Z,8.00
2023-04-21T16:41:24.481Z,6.20
2023-04-21T16:43:52.453Z,8.93
2023-04-21T16:46:20.252Z,8.57
2023-04-21T16:48:49.435Z,8.85
2023-04-21T16:51:17.503Z,8.75
2023-04-21T16:53:45.490Z,8.23
2023-04-21T16:56:14.760Z,8.98
2023-04-21T16:58:42.517Z,9.80
2023-04-21T17:01:10.321Z,10.52
2023-04-21T17:03:38.318Z,9.13
2023-04-21T17:06:10.787Z,10.45
2023-04-21T17:08:38.764Z,9.33
2023-04-21T17:11:06.571Z,7.93
2023-04-21T17:13:38.129Z,9.07
2023-04-21T17:16:07.469Z,9.68
2023-04-21T17:18:35.334Z,10.38
2023-04-21T17:21:05.975Z,8.18
2023-04-21T17:23:35.077Z,9.55
2023-04-21T17:26:03.668Z,7.63
2023-04-21T17:28:32.239Z,8.88
2023-04-21T17:31:13.827Z,10.07
2023-04-21T17:33:42.860Z,6.80
2023-04-21T17:36:10.653Z,13.93
2023-04-21T17:38:39.831Z,7.68
2023-04-21T17:41:08.327Z,8.57
2023-04-21T17:43:36.071Z,7.50
2023-04-21T17:46:03.859Z,8.35
2023-04-21T17:48:31.646Z,7.07
2023-04-21T17:50:59.328Z,10.02
2023-04-21T17:53:27.152Z,9.25
2023-04-21T17:55:56.544Z,8.15
2023-04-21T17:58:24.450Z,8.68
2023-04-21T18:00:52.274Z,8.50
2023-04-21T18:03:20.122Z,7.95
2023-04-21T18:05:48.074Z,8.00
2023-04-21T18:08:16.029Z,7.20
2023-04-21T18:10:43.785Z,10.93
2023-04-21T18:13:12.918Z,5.88
2023-04-21T18:15:41.035Z,6.63
2023-04-21T18:18:09.356Z,6.20
2023-04-21T18:20:37.671Z,10.07
2023-04-21T18:23:05.486Z,7.72
2023-04-21T18:25:41.989Z,6.72
2023-04-21T18:28:12.996Z,11.75
2023-04-21T18:30:41.161Z,9.18
2023-04-21T18:33:09.669Z,8.07
2023-04-21T18:35:37.571Z,10.10
2023-04-21T18:38:07.825Z,9.75
2023-04-21T18:40:37.059Z,8.50
2023-04-21T18:43:05.098Z,9.57
2023-04-21T18:45:34.526Z,6.85
2023-04-21T18:48:02.342Z,7.15
2023-04-21T18:50:30.888Z,5.90
2023-04-21T18:52:59.943Z,6.65
2023-04-21T18:55:27.700Z,7.22
2023-04-21T18:57:55.481Z,7.05
2023-04-21T19:00:23.331Z,5.82
2023-04-21T19:02:52.970Z,6.22
2023-04-21T19:05:20.900Z,5.70
2023-04-21T19:07:48.596Z,7.35
2023-04-21T19:10:16.527Z,6.65
2023-04-21T19:12:44.700Z,7.97
2023-04-21T19:15:12.848Z,8.30
2023-04-21T19:17:41.167Z,4.43
2023-04-21T19:20:11.760Z,4.15
2023-04-21T19:22:39.429Z,5.10
2023-04-21T19:25:08.494Z,10.38
2023-04-21T19:27:36.936Z,6.30
2023-04-21T19:30:05.909Z,4.60
2023-04-21T19:32:33.774Z,5.05
2023-04-21T19:35:01.644Z,5.75
2023-04-21T19:37:33.528Z,5.93
2023-04-21T19:42:31.236Z,5.68
2023-04-21T19:44:59.038Z,6.18
2023-04-21T19:47:26.929Z,4.43
2023-04-21T19:49:54.688Z,9.95
2023-04-21T19:52:22.414Z,7.90
2023-04-21T19:54:51.582Z,6.78
2023-04-21T19:57:19.282Z,10.77
2023-04-21T19:59:48.964Z,12.60
2023-04-21T20:02:17.026Z,6.32
2023-04-21T20:04:44.983Z,9.35
2023-04-21T20:07:13.104Z,6.75
2023-04-21T20:09:40.899Z,7.47
2023-04-21T20:12:10.120Z,7.85
2023-04-21T20:14:38.779Z,9.02
2023-04-21T20:17:06.465Z,9.02
2023-04-21T20:19:35.653Z,9.88
2023-04-21T20:22:03.636Z,8.52
2023-04-21T20:24:31.427Z,7.35
2023-04-21T20:26:59.227Z,6.60
2023-04-21T20:29:28.311Z,6.43
2023-04-21T20:31:57.410Z,7.30
2023-04-21T20:34:25.378Z,9.95
2023-04-21T20:36:54.888Z,8.32
2023-04-21T20:39:22.857Z,11.98
2023-04-21T20:42:01.056Z,8.95
2023-04-21T20:44:38.746Z,6.90
2023-04-21T20:47:08.274Z,9.70
2023-04-21T20:49:36.402Z,9.05
2023-04-21T20:52:04.617Z,8.32
2023-04-21T20:54:34.588Z,6.72
2023-04-21T20:57:03.020Z,6.35
2023-04-21T20:59:30.878Z,9.65
2023-04-21T21:01:59.938Z,7.70
2023-04-21T21:04:27.940Z,8.32
2023-04-21T21:06:56.081Z,14.13
2023-04-21T21:09:23.836Z,7.60
2023-04-21T21:11:51.570Z,8.75
2023-04-21T21:14:19.306Z,8.13
2023-04-21T21:16:47.097Z,5.07
2023-04-21T21:19:16.390Z,6.25
2023-04-21T21:21:44.228Z,10.45
2023-04-21T21:24:11.921Z,8.88
2023-04-21T21:26:42.595Z,8.75
2023-04-21T21:29:10.702Z,4.78
2023-04-21T21:31:38.409Z,6.18
2023-04-21T21:34:06.185Z,7.03
2023-04-21T21:36:36.124Z,10.85
2023-04-21T21:39:03.849Z,6.82
2023-04-21T21:41:31.627Z,6.50
2023-04-21T21:43:59.405Z,7.90
2023-04-21T21:46:27.238Z,9.18
2023-04-21T21:48:55.023Z,6.72
2023-04-21T21:51:22.690Z,6.75
2023-04-21T21:53:51.830Z,7.22
2023-04-21T21:56:19.970Z,10.27
2023-04-21T21:58:47.751Z,5.90
2023-04-21T22:01:18.144Z,8.05
2023-04-21T22:03:47.363Z,5.70
2023-04-21T22:06:17.177Z,6.95
2023-04-21T22:08:45.647Z,9.57
2023-04-21T22:11:14.822Z,7.32
2023-04-21T22:13:42.532Z,11.90
2023-04-21T22:16:10.450Z,5.20
2023-04-21T22:18:38.455Z,7.93
2023-04-21T22:21:06.306Z,6.07
2023-04-21T22:23:34.207Z,7.55
2023-04-21T22:26:01.888Z,6.57
2023-04-21T22:28:30.923Z,4.63
2023-04-21T22:30:58.751Z,4.82
2023-04-21T22:33:26.622Z,5.03
2023-04-21T22:35:54.281Z,6.53
2023-04-21T22:38:22.002Z,5.38
2023-04-21T22:40:49.771Z,7.50
2023-04-21T22:43:17.478Z,4.75
2023-04-21T22:45:46.590Z,5.55
2023-04-21T22:48:14.874Z,7.38
2023-04-21T22:50:44.796Z,4.13
2023-04-21T22:53:13.309Z,4.65
2023-04-21T22:55:41.125Z,6.45
2023-04-21T22:58:08.962Z,3.28
2023-04-21T23:00:36.670Z,8.23
2023-04-21T23:03:06.016Z,5.40
2023-04-21T23:05:33.879Z,5.68
2023-04-21T23:08:01.579Z,5.82
2023-04-21T23:10:30.150Z,5.35
2023-04-21T23:12:57.995Z,3.33
2023-04-21T23:15:26.771Z,8.00
2023-04-21T23:17:54.598Z,5.53
2023-04-21T23:20:23.726Z,7.60
2023-04-21T23:22:51.586Z,7.65
2023-04-21T23:25:19.471Z,8.60
2023-04-21T23:27:47.185Z,5.65
2023-04-21T23:30:15.364Z,5.32
2023-04-21T23:32:43.733Z,6.20
2023-04-21T23:35:11.565Z,6.13
2023-04-21T23:37:40.693Z,7.82
2023-04-21T23:40:11.189Z,5.15
2023-04-21T23:42:39.437Z,6.05
2023-04-21T23:45:08.430Z,5.68
2023-04-21T23:47:36.250Z,6.75
2023-04-21T23:50:03.973Z,6.90
2023-04-21T23:52:31.709Z,6.43
2023-04-21T23:55:00.752Z,5.72
2023-04-21T23:57:28.396Z,4.50
2023-04-21T23:59:56.053Z,6.45
